createdAt,value
2023-01-23T00:00:15.596Z,20.67
2023-01-23T00:03:18.762Z,20.15
2023-01-23T00:06:20.974Z,20.05
2023-01-23T00:09:23.184Z,19.13
2023-01-23T00:12:25.738Z,19.80
2023-01-23T00:15:28.008Z,18.67
2023-01-23T00:18:30.800Z,20.23
2023-01-23T00:21:32.924Z,19.70
2023-01-23T00:24:34.987Z,19.85
2023-01-23T00:27:37.350Z,20.10
2023-01-23T00:30:39.577Z,20.38
2023-01-23T00:33:43.201Z,20.52
2023-01-23T00:36:45.801Z,21.33
2023-01-23T00:39:50.905Z,21.15
2023-01-23T00:42:54.088Z,19.88
2023-01-23T00:45:56.835Z,19.38
2023-01-23T00:48:59.037Z,20.88
2023-01-23T00:52:01.178Z,20.67
2023-01-23T00:55:04.750Z,20.05
2023-01-23T00:58:08.321Z,19.73
2023-01-23T01:01:10.675Z,21.27
2023-01-23T01:04:12.893Z,21.02
2023-01-23T01:07:14.919Z,21.33
2023-01-23T01:10:17.465Z,21.58
2023-01-23T01:13:21.512Z,21.25
2023-01-23T01:16:26.730Z,22.60
2023-01-23T01:19:29.532Z,20.55
2023-01-23T01:22:32.376Z,21.83
2023-01-23T01:25:34.539Z,22.50
2023-01-23T01:28:39.391Z,22.55
2023-01-23T01:31:41.965Z,22.55
2023-01-23T01:34:44.099Z,23.73
2023-01-23T01:37:46.669Z,22.17
2023-01-23T01:40:48.808Z,23.05
2023-01-23T01:43:53.359Z,21.40
2023-01-23T01:46:55.561Z,23.27
2023-01-23T01:50:02.690Z,22.63
2023-01-23T01:53:05.398Z,22.05
2023-01-23T01:56:11.664Z,22.83
2023-01-23T01:59:14.968Z,23.35
2023-01-23T02:02:26.341Z,22.75
2023-01-23T02:05:35.375Z,23.25
2023-01-23T02:08:49.073Z,21.92
2023-01-23T02:11:51.740Z,23.02
2023-01-23T02:14:54.119Z,21.42
2023-01-23T02:17:56.326Z,22.88
2023-01-23T02:21:03.665Z,24.73
2023-01-23T02:24:15.181Z,23.10
2023-01-23T02:27:17.319Z,23.92
2023-01-23T02:30:21.512Z,24.00
2023-01-23T02:33:23.689Z,24.58
2023-01-23T02:36:32.363Z,24.30
2023-01-23T02:39:34.553Z,23.55
2023-01-23T02:42:37.928Z,23.80
2023-01-23T02:45:40.142Z,23.55
2023-01-23T02:48:44.423Z,23.13
2023-01-23T02:51:46.589Z,24.70
2023-01-23T02:54:48.780Z,23.65
2023-01-23T02:57:50.869Z,23.52
2023-01-23T03:00:53.186Z,23.80
2023-01-23T03:03:57.956Z,24.25
2023-01-23T03:07:00.170Z,23.98
2023-01-23T03:10:03.656Z,23.67
2023-01-23T03:13:07.503Z,24.13
2023-01-23T03:16:10.129Z,24.05
2023-01-23T03:19:12.276Z,22.35
2023-01-23T03:22:14.869Z,21.45
2023-01-23T03:25:17.324Z,23.00
2023-01-23T03:28:38.185Z,23.10
2023-01-23T03:31:40.582Z,22.77
2023-01-23T03:34:43.862Z,23.90
2023-01-23T03:37:47.323Z,21.30
2023-01-23T03:41:09.887Z,22.50
2023-01-23T03:44:12.027Z,21.73
2023-01-23T03:47:14.181Z,22.85
2023-01-23T03:50:16.571Z,23.05
2023-01-23T03:53:18.945Z,21.85
2023-01-23T03:56:21.047Z,22.13
2023-01-23T03:59:23.642Z,23.25
2023-01-23T04:02:25.860Z,23.65
2023-01-23T04:05:27.946Z,22.23
2023-01-23T04:08:30.210Z,22.20
2023-01-23T04:11:32.420Z,23.13
2023-01-23T04:14:37.637Z,21.73
2023-01-23T04:17:42.184Z,21.92
2023-01-23T04:20:44.670Z,22.30
2023-01-23T04:23:47.054Z,24.55
2023-01-23T04:26:49.209Z,24.50
2023-01-23T04:29:51.420Z,23.25
2023-01-23T04:32:53.883Z,22.65
2023-01-23T04:35:58.571Z,24.10
2023-01-23T04:39:01.161Z,22.73
2023-01-23T04:42:03.458Z,23.00
2023-01-23T04:45:06.180Z,23.42
2023-01-23T04:48:08.564Z,22.25
2023-01-23T04:51:11.060Z,21.90
2023-01-23T04:54:13.617Z,20.70
2023-01-23T04:57:15.689Z,23.67
2023-01-23T05:00:19.078Z,23.50
2023-01-23T05:03:21.527Z,22.38
2023-01-23T05:06:23.690Z,21.90
2023-01-23T05:09:25.829Z,23.30
2023-01-23T05:12:27.876Z,23.08
2023-01-23T05:15:30.951Z,21.98
2023-01-23T05:18:33.257Z,23.63
2023-01-23T05:21:35.519Z,23.30
2023-01-23T05:24:37.704Z,22.73
2023-01-23T05:27:39.901Z,23.90
2023-01-23T05:30:46.160Z,23.02
2023-01-23T05:33:48.628Z,24.15
2023-01-23T05:36:50.803Z,23.33
2023-01-23T05:39:52.992Z,23.10
2023-01-23T05:42:55.321Z,24.55
2023-01-23T05:46:01.124Z,24.23
2023-01-23T05:49:03.631Z,23.33
2023-01-23T05:52:06.554Z,24.00
2023-01-23T05:55:08.912Z,25.05
2023-01-23T05:58:11.354Z,25.42
2023-01-23T06:01:13.581Z,23.85
2023-01-23T06:04:16.366Z,24.38
2023-01-23T06:07:20.317Z,24.33
2023-01-23T06:10:22.728Z,24.60
2023-01-23T06:13:26.091Z,23.88
2023-01-23T06:16:28.331Z,24.70
2023-01-23T06:19:30.459Z,24.73
2023-01-23T06:22:32.666Z,24.15
2023-01-23T06:25:35.999Z,25.13
2023-01-23T06:28:38.106Z,25.10
2023-01-23T06:31:40.205Z,25.33
2023-01-23T06:34:43.125Z,25.30
2023-01-23T06:37:45.221Z,24.67
2023-01-23T06:40:47.759Z,26.02
2023-01-23T06:43:50.093Z,25.35
2023-01-23T06:46:55.078Z,26.13
2023-01-23T06:49:57.207Z,24.48
2023-01-23T06:52:59.533Z,24.17
2023-01-23T06:56:03.580Z,24.95
2023-01-23T06:59:06.511Z,25.35
2023-01-23T07:02:10.985Z,24.90
2023-01-23T07:05:13.107Z,24.15
2023-01-23T07:08:15.839Z,24.50
2023-01-23T07:11:18.066Z,25.35
2023-01-23T07:14:20.282Z,25.55
2023-01-23T07:17:22.330Z,24.75
2023-01-23T07:20:27.508Z,26.55
2023-01-23T07:23:29.783Z,25.95
2023-01-23T07:26:31.979Z,25.27
2023-01-23T07:29:34.579Z,25.58
2023-01-23T07:32:37.033Z,26.52
2023-01-23T07:35:39.976Z,26.38
2023-01-23T07:38:42.258Z,25.83
2023-01-23T07:41:46.409Z,26.67
2023-01-23T07:44:48.693Z,27.83
2023-01-23T07:47:50.843Z,26.80
2023-01-23T07:50:53.037Z,26.55
2023-01-23T07:53:55.389Z,27.40
2023-01-23T07:56:57.509Z,28.23
2023-01-23T08:00:00.200Z,25.95
2023-01-23T08:03:02.625Z,27.67
2023-01-23T08:06:04.886Z,26.52
2023-01-23T08:09:07.168Z,28.23
2023-01-23T08:12:09.412Z,27.42
2023-01-23T08:15:11.935Z,28.33
2023-01-23T08:18:14.099Z,27.88
2023-01-23T08:21:16.330Z,28.45
2023-01-23T08:24:18.431Z,27.70
2023-01-23T08:27:20.571Z,26.90
2023-01-23T08:30:22.972Z,27.90
2023-01-23T08:33:25.598Z,26.23
2023-01-23T08:36:28.046Z,27.88
2023-01-23T08:39:30.220Z,28.25
2023-01-23T08:42:32.300Z,28.08
2023-01-23T08:45:34.442Z,27.65
2023-01-23T08:48:37.118Z,28.45
2023-01-23T08:51:39.439Z,27.75
2023-01-23T08:54:41.730Z,28.88
2023-01-23T08:57:43.865Z,28.35
2023-01-23T09:00:48.103Z,28.30
2023-01-23T09:03:50.808Z,28.23
2023-01-23T09:06:52.886Z,27.85
2023-01-23T09:09:55.146Z,28.10
2023-01-23T09:12:57.806Z,28.73
2023-01-23T09:16:00.033Z,28.20
2023-01-23T09:19:02.160Z,29.80
2023-01-23T09:22:04.560Z,29.23
2023-01-23T09:25:07.162Z,28.75
2023-01-23T09:28:09.337Z,27.90
2023-01-23T09:31:14.023Z,29.35
2023-01-23T09:34:17.302Z,29.90
2023-01-23T09:37:19.569Z,29.73
2023-01-23T09:40:25.094Z,29.02
2023-01-23T09:43:33.035Z,30.55
2023-01-23T09:46:57.820Z,28.75
2023-01-23T09:50:20.359Z,28.77
2023-01-23T09:53:31.205Z,29.10
2023-01-23T09:56:41.706Z,30.98
2023-01-23T10:00:00.814Z,28.33
2023-01-23T10:03:11.603Z,28.48
2023-01-23T10:06:23.257Z,28.75
2023-01-23T10:09:34.126Z,27.75
2023-01-23T10:12:57.570Z,27.95
2023-01-23T10:16:45.020Z,29.13
2023-01-23T10:23:18.234Z,26.67
2023-01-23T10:26:24.883Z,26.73
2023-01-23T10:29:39.751Z,26.80
2023-01-23T10:32:52.776Z,26.45
2023-01-23T10:36:24.191Z,27.08
2023-01-23T10:39:31.995Z,26.63
2023-01-23T10:42:34.380Z,28.20
2023-01-23T10:45:37.567Z,28.05
2023-01-23T10:48:45.980Z,28.30
2023-01-23T10:51:48.775Z,26.48
2023-01-23T10:54:50.840Z,25.90
2023-01-23T10:57:58.970Z,27.75
2023-01-23T11:01:01.485Z,26.17
2023-01-23T11:04:25.665Z,27.48
2023-01-23T11:07:32.747Z,26.98
2023-01-23T11:10:35.142Z,26.83
2023-01-23T11:13:37.175Z,26.67
2023-01-23T11:16:40.723Z,27.85
2023-01-23T11:19:45.397Z,26.80
2023-01-23T11:22:59.702Z,27.00
2023-01-23T11:26:03.302Z,27.00
2023-01-23T11:29:23.473Z,29.80
2023-01-23T11:32:25.759Z,28.45
2023-01-23T11:35:51.503Z,30.23
2023-01-23T11:39:18.259Z,27.00
2023-01-23T11:42:20.649Z,28.45
2023-01-23T11:45:55.018Z,29.55
2023-01-23T11:49:05.638Z,27.98
2023-01-23T11:52:36.884Z,26.63
2023-01-23T11:55:52.967Z,26.95
2023-01-23T11:59:15.985Z,27.92
2023-01-23T12:02:38.249Z,27.17
2023-01-23T12:05:40.414Z,27.30
2023-01-23T12:08:56.583Z,26.17
2023-01-23T12:12:04.411Z,28.13
2023-01-23T12:15:26.843Z,28.42
2023-01-23T12:18:35.658Z,28.85
2023-01-23T12:22:00.682Z,28.25
2023-01-23T12:25:29.922Z,28.35
2023-01-23T12:28:50.593Z,27.35
2023-01-23T12:32:13.779Z,28.35
2023-01-23T12:35:38.057Z,27.90
2023-01-23T12:38:43.393Z,28.42
2023-01-23T12:42:12.267Z,27.10
2023-01-23T12:45:46.699Z,27.58
2023-01-23T12:49:29.820Z,27.33
2023-01-23T12:52:41.764Z,27.70
2023-01-23T12:56:27.933Z,28.13
2023-01-23T13:00:00.236Z,28.35
2023-01-23T13:03:46.328Z,27.73
2023-01-23T13:06:54.891Z,29.25
2023-01-23T13:10:55.767Z,28.73
2023-01-23T13:13:58.692Z,28.25
2023-01-23T13:17:04.839Z,28.20
2023-01-23T13:20:52.862Z,28.63
2023-01-23T13:24:57.335Z,28.45
2023-01-23T13:27:59.495Z,28.13
2023-01-23T13:31:04.411Z,28.17
2023-01-23T13:34:18.511Z,28.55
2023-01-23T13:37:26.632Z,28.40
2023-01-23T13:40:30.282Z,28.27
2023-01-23T13:43:50.578Z,27.83
2023-01-23T14:22:45.979Z,28.90
2023-01-23T14:25:48.415Z,28.10
2023-01-23T14:28:55.784Z,28.23
2023-01-23T14:31:58.082Z,30.15
2023-01-23T14:35:00.316Z,33.90
2023-01-23T14:38:07.298Z,27.60
2023-01-23T14:41:09.544Z,27.98
2023-01-23T14:44:22.528Z,26.88
2023-01-23T14:47:34.059Z,28.27
2023-01-23T14:50:36.893Z,29.63
2023-01-23T14:53:42.119Z,26.25
2023-01-23T14:56:46.183Z,30.88
2023-01-23T14:59:49.040Z,28.88
2023-01-23T15:02:51.251Z,25.95
2023-01-23T15:05:59.536Z,27.83
2023-01-23T15:09:18.696Z,27.73
2023-01-23T15:12:21.006Z,27.58
2023-01-23T15:15:25.626Z,27.92
2023-01-23T15:18:30.501Z,27.80
2023-01-23T15:21:36.217Z,26.92
2023-01-23T15:24:38.498Z,28.63
2023-01-23T15:27:40.586Z,27.83
2023-01-23T15:30:48.398Z,29.13
2023-01-23T15:33:50.755Z,31.67
2023-01-23T15:37:02.227Z,27.48
2023-01-23T15:40:15.202Z,30.90
2023-01-23T15:43:19.139Z,31.83
2023-01-23T15:46:21.175Z,30.45
2023-01-23T15:49:26.371Z,31.83
2023-01-23T15:52:30.400Z,33.55
2023-01-23T15:55:32.499Z,29.58
2023-01-23T15:58:34.657Z,37.15
2023-01-23T16:01:36.872Z,35.67
2023-01-23T16:04:38.977Z,32.00
2023-01-23T16:07:44.022Z,35.25
2023-01-23T16:10:47.176Z,31.23
2023-01-23T16:13:49.422Z,34.70
2023-01-23T16:16:51.690Z,32.47
2023-01-23T16:19:54.679Z,30.48
2023-01-23T16:23:11.756Z,37.22
2023-01-23T16:26:21.227Z,38.00
2023-01-23T16:29:27.723Z,36.83
2023-01-23T16:32:30.711Z,33.00
2023-01-23T16:35:33.185Z,36.13
2023-01-23T16:38:35.474Z,37.13
2023-01-23T16:41:38.061Z,37.25
2023-01-23T16:44:40.731Z,38.72
2023-01-23T16:47:43.143Z,34.65
2023-01-23T16:50:50.529Z,34.63
2023-01-23T16:53:55.925Z,31.67
2023-01-23T16:56:58.793Z,32.05
2023-01-23T17:00:01.471Z,30.67
2023-01-23T17:03:08.829Z,29.75
2023-01-23T17:06:16.094Z,30.27
2023-01-23T17:09:18.571Z,31.27
2023-01-23T17:12:28.604Z,32.08
2023-01-23T17:15:32.881Z,30.85
2023-01-23T17:18:36.920Z,31.15
2023-01-23T17:21:39.860Z,36.38
2023-01-23T17:24:42.565Z,33.15
2023-01-23T17:27:50.152Z,31.25
2023-01-23T17:31:00.813Z,33.72
2023-01-23T17:34:06.767Z,36.47
2023-01-23T17:37:20.228Z,39.20
2023-01-23T17:40:23.812Z,41.92
2023-01-23T17:43:26.844Z,38.38
2023-01-23T17:46:34.111Z,32.60
2023-01-23T17:49:37.761Z,31.58
2023-01-23T17:52:41.287Z,33.85
2023-01-23T17:55:48.676Z,32.53
2023-01-23T17:58:53.354Z,33.75
2023-01-23T18:01:57.982Z,33.15
2023-01-23T18:05:00.718Z,30.30
2023-01-23T18:08:03.464Z,32.92
2023-01-23T18:11:11.874Z,31.20
2023-01-23T18:14:33.317Z,35.72
2023-01-23T18:17:59.102Z,34.00
2023-01-23T18:21:04.964Z,33.65
2023-01-23T18:24:25.434Z,36.67
2023-01-23T18:27:31.018Z,35.08
2023-01-23T18:31:00.475Z,34.50
2023-01-23T18:34:23.204Z,36.83
2023-01-23T18:37:39.314Z,39.22
2023-01-23T18:41:05.851Z,36.10
2023-01-23T18:44:24.423Z,41.92
2023-01-23T18:47:28.447Z,37.38
2023-01-23T18:50:32.830Z,33.78
2023-01-23T18:54:00.260Z,33.92
2023-01-23T18:57:19.809Z,34.97
2023-01-23T19:00:29.607Z,38.58
2023-01-23T19:03:43.237Z,37.25
2023-01-23T19:06:47.509Z,32.88
2023-01-23T19:09:52.821Z,35.45
2023-01-23T19:13:12.911Z,31.25
2023-01-23T19:16:34.725Z,30.92
2023-01-23T19:20:00.256Z,32.83
2023-01-23T19:23:37.621Z,36.15
2023-01-23T19:26:42.867Z,35.22
2023-01-23T19:29:48.150Z,38.13
2023-01-23T19:32:53.114Z,35.80
2023-01-23T19:35:58.388Z,35.38
2023-01-23T19:39:03.876Z,33.13
2023-01-23T19:42:16.773Z,34.75
2023-01-23T19:45:20.727Z,33.28
2023-01-23T19:48:24.942Z,32.90
2023-01-23T19:51:27.838Z,30.88
2023-01-23T19:54:35.686Z,31.42
2023-01-23T19:57:39.115Z,30.73
2023-01-23T20:00:45.726Z,30.70
2023-01-23T20:03:49.373Z,31.67
2023-01-23T20:06:52.559Z,33.88
2023-01-23T20:09:57.757Z,35.22
2023-01-23T20:13:01.959Z,34.38
2023-01-23T20:16:16.779Z,37.25
2023-01-23T20:19:21.346Z,38.25
2023-01-23T20:22:25.054Z,36.38
2023-01-23T20:25:28.691Z,38.90
2023-01-23T20:28:32.098Z,34.47
2023-01-23T20:31:36.269Z,36.22
2023-01-23T20:34:40.138Z,35.05
2023-01-23T20:37:43.979Z,33.13
2023-01-23T20:40:48.023Z,31.17
2023-01-23T20:43:51.838Z,33.10
2023-01-23T20:46:56.639Z,33.40
2023-01-23T20:50:00.949Z,42.70
2023-01-23T20:53:23.019Z,36.22
2023-01-23T20:56:30.402Z,34.50
2023-01-23T20:59:35.156Z,44.33
2023-01-23T21:02:37.860Z,46.35
2023-01-23T21:05:41.272Z,36.25
2023-01-23T21:08:44.768Z,36.05
2023-01-23T21:11:50.983Z,34.72
2023-01-23T21:14:54.138Z,35.10
2023-01-23T21:17:57.490Z,34.60
2023-01-23T21:21:08.359Z,31.70
2023-01-23T21:24:11.747Z,31.55
2023-01-23T21:27:14.754Z,32.35
2023-01-23T21:30:18.078Z,32.63
2023-01-23T21:33:20.323Z,33.63
2023-01-23T21:36:25.761Z,39.63
2023-01-23T21:39:28.044Z,35.08
2023-01-23T21:42:30.462Z,36.05
2023-01-23T21:45:32.993Z,31.60
2023-01-23T21:48:35.590Z,34.35
2023-01-23T21:51:37.720Z,32.45
2023-01-23T21:54:41.892Z,30.35
2023-01-23T21:57:44.340Z,30.30
2023-01-23T22:01:06.916Z,30.48
2023-01-23T22:04:14.924Z,29.67
2023-01-23T22:07:16.962Z,29.05
2023-01-23T22:10:19.565Z,29.23
2023-01-23T22:13:21.648Z,30.45
2023-01-23T22:16:35.979Z,31.25
2023-01-23T22:19:46.188Z,32.28
2023-01-23T22:22:48.273Z,31.27
2023-01-23T22:25:51.726Z,31.20
2023-01-23T22:28:53.850Z,31.55
2023-01-23T22:31:56.033Z,30.55
2023-01-23T22:34:58.229Z,30.77
2023-01-23T22:38:00.361Z,30.70
2023-01-23T22:41:05.349Z,30.15
2023-01-23T22:44:07.565Z,29.88
2023-01-23T22:47:09.773Z,31.25
2023-01-23T22:50:11.968Z,31.50
2023-01-23T22:53:14.780Z,32.03
2023-01-23T22:56:16.891Z,30.80
2023-01-23T22:59:19.099Z,31.23
2023-01-23T23:02:21.334Z,31.38
2023-01-23T23:05:23.780Z,30.83
2023-01-23T23:08:26.573Z,29.77
2023-01-23T23:11:29.235Z,31.58
2023-01-23T23:14:31.498Z,31.17
2023-01-23T23:17:33.681Z,31.73
2023-01-23T23:20:35.990Z,31.50
2023-01-23T23:23:38.633Z,30.75
2023-01-23T23:26:40.985Z,31.77
2023-01-23T23:29:43.270Z,31.17
2023-01-23T23:32:45.399Z,31.23
2023-01-23T23:35:48.495Z,32.00
2023-01-23T23:38:50.559Z,30.60
2023-01-23T23:41:52.740Z,30.95
2023-01-23T23:44:55.291Z,29.33
2023-01-23T23:47:57.451Z,30.02
2023-01-23T23:51:00.838Z,29.13
2023-01-23T23:54:03.044Z,29.02
2023-01-23T23:57:05.214Z,27.92
